Bookmark and Share
Track history (hours):
 

Jupiter Spirit

Last reported at 2014-Apr-09 13:10 UTC. Time now 2014-Apr-19 07:05 UTC.
Position N 48°31' W 125°48'.
Warning: this ship's position is 9 days out of date.

Length 183 m; draft 8.1 m.

Type: Cargo ship. MMSI: 636015173.

NotesDate/timePositionNaut miles runAvg speedWind from/ knotsBaromVisibWave heightAir tempDewpointWater temp
2014-Apr-09 13:10N 48°31' W 125°48'6914.0
2014-Apr-09 08:14N 48°20' W 124°06'1014.9
2014-Apr-09 07:33N 48°17' W 123°51'1413.7
2014-Apr-09 06:32N 48°15' W 123°30'1010.4
2014-Apr-09 05:33N 48°09' W 123°17'1514.5
2014-Apr-09 04:32N 48°12' W 122°56'1514.8
2014-Apr-09 03:33N 48°03' W 122°38'1716.9
2014-Apr-09 02:33N 47°49' W 122°27'1818.3
2014-Apr-09 01:34N 47°30' W 122°25'1313.1
2014-Apr-09 00:33N 47°17' W 122°26'1 1.5
2014-Apr-08 23:32N 47°16' W 122°25'0 0.0
2014-Apr-08 22:32N 47°16' W 122°25'0 0.0
2014-Apr-08 21:32N 47°16' W 122°25'0 0.0
2014-Apr-08 20:32N 47°16' W 122°25'0 0.0
2014-Apr-08 19:32N 47°16' W 122°25'0 0.0
2014-Apr-08 18:26N 47°16' W 122°25'0 0.0
2014-Apr-08 17:32N 47°16' W 122°25'0 0.0
2014-Apr-08 16:29N 47°16' W 122°25'0 0.0
2014-Apr-08 15:32N 47°16' W 122°25'0 0.0
2014-Apr-08 14:29N 47°16' W 122°25'0 0.0
2014-Apr-08 13:23N 47°16' W 122°25'0 0.0
2014-Apr-08 12:29N 47°16' W 122°25'0 0.0
2014-Apr-08 11:32N 47°16' W 122°25'1 0.8
2014-Apr-08 10:33N 47°17' W 122°25'10 9.6
2014-Apr-08 09:34N 47°26' W 122°24'1717.1
2014-Apr-08 08:33N 47°43' W 122°27'1717.1
2014-Apr-08 07:33N 47°59' W 122°37'1716.9
2014-Apr-08 06:33N 48°11' W 122°54'1818.4
2014-Apr-08 05:33N 48°10' W 123°22'8 8.2
2014-Apr-08 04:33N 48°17' W 123°28'9 9.3
2014-Apr-08 03:33N 48°23' W 123°17'1111.1
2014-Apr-08 02:33N 48°34' W 123°14'1211.7
2014-Apr-08 01:33N 48°45' W 123°07'10 9.6
2014-Apr-08 00:33N 48°54' W 123°09'1313.3
2014-Apr-07 23:33N 49°05' W 123°21'1111.4
2014-Apr-07 22:33N 49°08' W 123°04'6 6.3
2014-Apr-07 21:32N 49°11' W 122°55'0 0.0
2014-Apr-07 20:32N 49°11' W 122°55'0 0.0
2014-Apr-07 19:32N 49°11' W 122°55'0 0.0
2014-Apr-07 17:29N 49°11' W 122°55'0 0.0
2014-Apr-07 16:32N 49°11' W 122°55'0 0.0
2014-Apr-07 15:32N 49°11' W 122°55'0 0.0
2014-Apr-07 14:32N 49°11' W 122°55'0 0.0
2014-Apr-07 13:32N 49°11' W 122°55'0 0.0
2014-Apr-07 12:32N 49°11' W 122°55'0 0.0
2014-Apr-07 11:32N 49°11' W 122°55'0 0.0
2014-Apr-07 10:32N 49°11' W 122°55'0 0.0
2014-Apr-07 09:32N 49°11' W 122°55'0 0.0
2014-Apr-07 08:32N 49°11' W 122°55'0 0.0
2014-Apr-07 07:32N 49°11' W 122°55'0 0.0
2014-Apr-07 06:32N 49°11' W 122°55'0 0.0
2014-Apr-07 05:32N 49°11' W 122°55'0 0.0
2014-Apr-07 04:32N 49°11' W 122°55'0 0.0
2014-Apr-07 03:32N 49°11' W 122°55'0 0.0
2014-Apr-07 02:32N 49°11' W 122°55'0 0.0
2014-Apr-07 01:32N 49°11' W 122°55'0 0.0
2014-Apr-07 00:32N 49°11' W 122°55'0 0.0
2014-Apr-06 23:32N 49°11' W 122°55'0 0.0
2014-Apr-06 22:32N 49°11' W 122°55'3 3.6
2014-Apr-06 21:33N 49°09' W 123°00'1111.3
2014-Apr-06 20:34N 49°07' W 123°17'1010.3
2014-Apr-06 19:33N 48°57' W 123°10'1313.2
2014-Apr-06 18:34N 48°45' W 123°06'1313.0
2014-Apr-06 17:34N 48°32' W 123°11'1312.7
2014-Apr-06 16:33N 48°22' W 123°22'1110.9
2014-Apr-06 15:30N 48°13' W 123°34'1110.7
2014-Apr-06 14:30N 48°13' W 123°50'1413.2
2014-Apr-06 13:25N 48°18' W 124°10'4012.5
2014-Apr-06 10:15N 48°29' W 125°08'811.6
2014-Apr-06 09:33N 48°29' W 125°20'1312.9
2014-Apr-06 08:33N 48°28' W 125°40'1312.5
2014-Apr-06 07:33N 48°29' W 125°59'  

Dump ship's entire track history

sailing weather and tide predictions

Jupiter Spirit — A8ZC2 — position and weather